sensor_id;sensor_type;location;lat;lon;timestamp;pressure;altitude;pressure_sealevel;temperature;humidity
49393;BME280;35268;42.642;23.308;2023-04-26T00:01:28;93020.41;;;9.26;78.79
49393;BME280;35268;42.642;23.308;2023-04-26T00:03:54;93002.16;;;9.16;78.68
49393;BME280;35268;42.642;23.308;2023-04-26T00:06:20;93000.50;;;9.11;78.72
49393;BME280;35268;42.642;23.308;2023-04-26T00:08:45;92996.59;;;9.09;78.66
49393;BME280;35268;42.642;23.308;2023-04-26T00:11:11;92995.38;;;9.06;78.30
49393;BME280;35268;42.642;23.308;2023-04-26T00:13:36;92989.03;;;8.98;78.31
49393;BME280;35268;42.642;23.308;2023-04-26T00:16:03;92984.53;;;8.90;78.21
49393;BME280;35268;42.642;23.308;2023-04-26T00:18:29;92981.16;;;8.81;78.48
49393;BME280;35268;42.642;23.308;2023-04-26T00:20:56;92971.97;;;8.78;78.39
49393;BME280;35268;42.642;23.308;2023-04-26T00:23:21;92983.25;;;8.75;78.71
49393;BME280;35268;42.642;23.308;2023-04-26T00:25:47;92979.22;;;8.69;79.06
49393;BME280;35268;42.642;23.308;2023-04-26T00:28:12;92978.75;;;8.67;78.92
49393;BME280;35268;42.642;23.308;2023-04-26T00:30:37;92977.50;;;8.64;79.03
49393;BME280;35268;42.642;23.308;2023-04-26T00:33:06;92967.84;;;8.60;79.16
49393;BME280;35268;42.642;23.308;2023-04-26T00:35:32;92974.13;;;8.55;79.21
49393;BME280;35268;42.642;23.308;2023-04-26T00:37:57;92964.16;;;8.52;78.95
49393;BME280;35268;42.642;23.308;2023-04-26T00:40:23;92962.91;;;8.50;78.95
49393;BME280;35268;42.642;23.308;2023-04-26T00:42:48;92966.09;;;8.43;79.12
49393;BME280;35268;42.642;23.308;2023-04-26T00:45:13;92964.50;;;8.42;78.84
49393;BME280;35268;42.642;23.308;2023-04-26T00:47:39;92965.31;;;8.34;78.92
49393;BME280;35268;42.642;23.308;2023-04-26T00:50:06;92969.06;;;8.33;79.03
49393;BME280;35268;42.642;23.308;2023-04-26T00:52:32;92967.69;;;8.27;79.09
49393;BME280;35268;42.642;23.308;2023-04-26T00:54:58;92963.03;;;8.23;78.93
49393;BME280;35268;42.642;23.308;2023-04-26T00:57:23;92964.13;;;8.22;78.94
49393;BME280;35268;42.642;23.308;2023-04-26T00:59:50;92958.53;;;8.15;79.06
49393;BME280;35268;42.642;23.308;2023-04-26T01:02:15;92964.50;;;8.12;79.07
49393;BME280;35268;42.642;23.308;2023-04-26T01:04:41;92976.50;;;8.10;79.03
49393;BME280;35268;42.642;23.308;2023-04-26T01:07:07;92971.06;;;8.06;79.11
49393;BME280;35268;42.642;23.308;2023-04-26T01:09:33;92980.13;;;8.05;79.01
49393;BME280;35268;42.642;23.308;2023-04-26T01:12:01;92972.00;;;8.01;78.95
49393;BME280;35268;42.642;23.308;2023-04-26T01:14:27;92982.03;;;7.96;78.66
49393;BME280;35268;42.642;23.308;2023-04-26T01:16:53;92968.63;;;7.92;78.32
49393;BME280;35268;42.642;23.308;2023-04-26T01:19:18;92968.00;;;7.87;78.38
49393;BME280;35268;42.642;23.308;2023-04-26T01:21:43;92957.69;;;7.85;78.45
49393;BME280;35268;42.642;23.308;2023-04-26T01:24:10;92961.94;;;7.86;78.44
49393;BME280;35268;42.642;23.308;2023-04-26T01:26:37;92954.59;;;7.83;78.52
49393;BME280;35268;42.642;23.308;2023-04-26T01:29:19;92953.81;;;7.82;78.93
49393;BME280;35268;42.642;23.308;2023-04-26T01:31:46;92956.63;;;7.77;79.03
49393;BME280;35268;42.642;23.308;2023-04-26T01:34:13;92963.66;;;7.73;79.33
49393;BME280;35268;42.642;23.308;2023-04-26T01:36:38;92968.53;;;7.62;80.25
49393;BME280;35268;42.642;23.308;2023-04-26T01:39:04;92963.88;;;7.51;80.64
49393;BME280;35268;42.642;23.308;2023-04-26T01:41:29;92977.00;;;7.47;81.10
49393;BME280;35268;42.642;23.308;2023-04-26T01:43:55;92973.09;;;7.44;81.41
49393;BME280;35268;42.642;23.308;2023-04-26T01:46:21;92972.31;;;7.44;81.63
49393;BME280;35268;42.642;23.308;2023-04-26T01:48:46;92976.19;;;7.47;82.05
49393;BME280;35268;42.642;23.308;2023-04-26T01:51:12;92971.06;;;7.50;81.61
49393;BME280;35268;42.642;23.308;2023-04-26T01:53:38;92974.63;;;7.54;81.53
49393;BME280;35268;42.642;23.308;2023-04-26T01:56:03;92968.38;;;7.59;81.33
49393;BME280;35268;42.642;23.308;2023-04-26T01:58:30;92968.22;;;7.64;80.96
49393;BME280;35268;42.642;23.308;2023-04-26T02:00:56;92961.19;;;7.68;80.78
49393;BME280;35268;42.642;23.308;2023-04-26T02:03:22;92962.75;;;7.69;81.00
49393;BME280;35268;42.642;23.308;2023-04-26T02:05:47;92955.44;;;7.66;81.14
49393;BME280;35268;42.642;23.308;2023-04-26T02:08:13;92955.75;;;7.64;81.37
49393;BME280;35268;42.642;23.308;2023-04-26T02:10:38;92952.13;;;7.69;81.23
49393;BME280;35268;42.642;23.308;2023-04-26T02:13:07;92954.16;;;7.72;81.26
49393;BME280;35268;42.642;23.308;2023-04-26T02:15:32;92951.50;;;7.72;81.34
49393;BME280;35268;42.642;23.308;2023-04-26T02:17:58;92941.38;;;7.74;81.28
49393;BME280;35268;42.642;23.308;2023-04-26T02:20:24;92941.06;;;7.76;81.30
49393;BME280;35268;42.642;23.308;2023-04-26T02:22:49;92937.75;;;7.79;81.53
49393;BME280;35268;42.642;23.308;2023-04-26T02:25:15;92943.50;;;7.81;81.60
49393;BME280;35268;42.642;23.308;2023-04-26T02:27:40;92949.28;;;7.83;81.64
49393;BME280;35268;42.642;23.308;2023-04-26T02:30:06;92948.19;;;7.84;81.46
49393;BME280;35268;42.642;23.308;2023-04-26T02:32:32;92950.50;;;7.86;81.53
49393;BME280;35268;42.642;23.308;2023-04-26T02:34:57;92951.31;;;7.86;81.81
49393;BME280;35268;42.642;23.308;2023-04-26T02:37:23;92946.47;;;7.88;82.22
49393;BME280;35268;42.642;23.308;2023-04-26T02:39:49;92948.16;;;7.93;82.58
49393;BME280;35268;42.642;23.308;2023-04-26T02:42:15;92946.44;;;7.97;82.76
49393;BME280;35268;42.642;23.308;2023-04-26T02:44:41;92949.53;;;7.99;82.69
49393;BME280;35268;42.642;23.308;2023-04-26T02:47:07;92947.50;;;8.04;82.84
49393;BME280;35268;42.642;23.308;2023-04-26T02:49:32;92938.56;;;8.09;82.90
49393;BME280;35268;42.642;23.308;2023-04-26T02:51:58;92935.28;;;8.12;82.33
49393;BME280;35268;42.642;23.308;2023-04-26T02:54:23;92934.63;;;8.15;82.70
49393;BME280;35268;42.642;23.308;2023-04-26T02:56:49;92923.41;;;8.18;82.49
49393;BME280;35268;42.642;23.308;2023-04-26T02:59:14;92924.63;;;8.21;82.18
49393;BME280;35268;42.642;23.308;2023-04-26T03:01:40;92934.28;;;8.26;82.41
49393;BME280;35268;42.642;23.308;2023-04-26T03:04:06;92938.63;;;8.30;82.10
49393;BME280;35268;42.642;23.308;2023-04-26T03:06:31;92938.31;;;8.32;82.40
49393;BME280;35268;42.642;23.308;2023-04-26T03:08:57;92932.69;;;8.33;82.40
49393;BME280;35268;42.642;23.308;2023-04-26T03:11:23;92939.66;;;8.38;82.04
49393;BME280;35268;42.642;23.308;2023-04-26T03:13:48;92928.75;;;8.39;82.09
49393;BME280;35268;42.642;23.308;2023-04-26T03:16:14;92927.78;;;8.44;81.81
49393;BME280;35268;42.642;23.308;2023-04-26T03:18:40;92923.72;;;8.47;81.71
49393;BME280;35268;42.642;23.308;2023-04-26T03:21:05;92929.63;;;8.52;81.54
49393;BME280;35268;42.642;23.308;2023-04-26T03:23:31;92935.38;;;8.54;81.57
49393;BME280;35268;42.642;23.308;2023-04-26T03:25:56;92926.66;;;8.54;81.89
49393;BME280;35268;42.642;23.308;2023-04-26T03:28:22;92929.13;;;8.59;82.07
49393;BME280;35268;42.642;23.308;2023-04-26T03:30:48;92928.47;;;8.62;82.30
49393;BME280;35268;42.642;23.308;2023-04-26T03:33:14;92937.66;;;8.64;82.08
49393;BME280;35268;42.642;23.308;2023-04-26T03:35:41;92934.69;;;8.66;82.15
49393;BME280;35268;42.642;23.308;2023-04-26T03:38:07;92942.03;;;8.69;82.44
49393;BME280;35268;42.642;23.308;2023-04-26T03:40:32;92940.47;;;8.68;82.33
49393;BME280;35268;42.642;23.308;2023-04-26T03:42:58;92943.88;;;8.69;82.71
49393;BME280;35268;42.642;23.308;2023-04-26T03:45:23;92946.22;;;8.70;82.62
49393;BME280;35268;42.642;23.308;2023-04-26T03:47:50;92950.09;;;8.73;82.50
49393;BME280;35268;42.642;23.308;2023-04-26T03:50:16;92945.06;;;8.80;82.13
49393;BME280;35268;42.642;23.308;2023-04-26T03:52:42;92949.72;;;8.83;82.02
49393;BME280;35268;42.642;23.308;2023-04-26T03:55:07;92949.53;;;8.88;81.92
49393;BME280;35268;42.642;23.308;2023-04-26T03:57:34;92928.88;;;8.94;81.73
49393;BME280;35268;42.642;23.308;2023-04-26T04:00:00;92935.72;;;8.95;81.48
49393;BME280;35268;42.642;23.308;2023-04-26T04:02:25;92949.94;;;8.99;80.67
49393;BME280;35268;42.642;23.308;2023-04-26T04:04:51;92953.56;;;8.94;80.19
49393;BME280;35268;42.642;23.308;2023-04-26T04:07:16;92957.19;;;8.90;80.57
49393;BME280;35268;42.642;23.308;2023-04-26T04:09:43;92961.94;;;8.84;80.92
49393;BME280;35268;42.642;23.308;2023-04-26T04:12:08;92966.50;;;8.75;81.15
49393;BME280;35268;42.642;23.308;2023-04-26T04:14:34;92962.94;;;8.71;81.53
49393;BME280;35268;42.642;23.308;2023-04-26T04:16:59;92961.53;;;8.73;82.07
49393;BME280;35268;42.642;23.308;2023-04-26T04:19:26;92960.28;;;8.71;82.02
49393;BME280;35268;42.642;23.308;2023-04-26T04:21:51;92967.63;;;8.74;82.05
49393;BME280;35268;42.642;23.308;2023-04-26T04:24:17;92969.63;;;8.77;82.50
49393;BME280;35268;42.642;23.308;2023-04-26T04:26:44;92973.19;;;8.81;81.92
49393;BME280;35268;42.642;23.308;2023-04-26T04:29:09;92976.75;;;8.85;82.49
49393;BME280;35268;42.642;23.308;2023-04-26T04:31:35;92972.16;;;8.94;82.71
49393;BME280;35268;42.642;23.308;2023-04-26T04:34:01;92972.88;;;9.03;81.97
49393;BME280;35268;42.642;23.308;2023-04-26T04:36:26;92980.22;;;9.07;81.99
49393;BME280;35268;42.642;23.308;2023-04-26T04:38:52;92980.22;;;9.07;82.31
49393;BME280;35268;42.642;23.308;2023-04-26T04:41:17;92983.63;;;9.07;82.74
49393;BME280;35268;42.642;23.308;2023-04-26T04:43:44;92984.09;;;9.09;82.01
49393;BME280;35268;42.642;23.308;2023-04-26T04:46:10;92974.75;;;9.03;82.32
49393;BME280;35268;42.642;23.308;2023-04-26T04:48:36;92980.72;;;9.00;82.83
49393;BME280;35268;42.642;23.308;2023-04-26T04:51:03;92976.81;;;8.97;83.04
49393;BME280;35268;42.642;23.308;2023-04-26T04:53:28;92980.53;;;9.05;83.10
49393;BME280;35268;42.642;23.308;2023-04-26T04:55:53;92996.94;;;9.07;82.34
49393;BME280;35268;42.642;23.308;2023-04-26T04:58:19;92991.28;;;9.09;82.52
49393;BME280;35268;42.642;23.308;2023-04-26T05:00:46;92975.47;;;9.12;82.30
49393;BME280;35268;42.642;23.308;2023-04-26T05:03:13;92978.91;;;9.13;82.55
49393;BME280;35268;42.642;23.308;2023-04-26T05:05:38;92981.34;;;9.18;81.99
49393;BME280;35268;42.642;23.308;2023-04-26T05:08:04;92984.50;;;9.20;81.54
49393;BME280;35268;42.642;23.308;2023-04-26T05:10:32;92982.28;;;9.22;82.05
49393;BME280;35268;42.642;23.308;2023-04-26T05:12:58;92984.75;;;9.27;83.08
49393;BME280;35268;42.642;23.308;2023-04-26T05:15:23;92983.28;;;9.30;83.27
49393;BME280;35268;42.642;23.308;2023-04-26T05:17:49;92991.09;;;9.35;83.49
49393;BME280;35268;42.642;23.308;2023-04-26T05:20:15;92983.03;;;9.43;83.49
49393;BME280;35268;42.642;23.308;2023-04-26T05:22:41;92984.97;;;9.55;82.95
49393;BME280;35268;42.642;23.308;2023-04-26T05:25:07;92993.13;;;9.71;82.92
49393;BME280;35268;42.642;23.308;2023-04-26T05:27:33;92994.91;;;9.79;81.72
49393;BME280;35268;42.642;23.308;2023-04-26T05:29:59;93001.94;;;9.96;80.33
49393;BME280;35268;42.642;23.308;2023-04-26T05:32:25;92997.41;;;10.09;78.73
49393;BME280;35268;42.642;23.308;2023-04-26T05:34:51;92994.22;;;10.16;77.21
49393;BME280;35268;42.642;23.308;2023-04-26T05:37:16;93007.28;;;10.21;75.33
49393;BME280;35268;42.642;23.308;2023-04-26T05:39:42;93003.88;;;10.20;74.98
49393;BME280;35268;42.642;23.308;2023-04-26T05:42:08;92994.22;;;10.28;74.53
49393;BME280;35268;42.642;23.308;2023-04-26T05:44:33;93007.03;;;10.47;74.63
49393;BME280;35268;42.642;23.308;2023-04-26T05:46:59;93009.94;;;10.54;74.09
49393;BME280;35268;42.642;23.308;2023-04-26T05:49:24;93003.34;;;10.64;73.70
49393;BME280;35268;42.642;23.308;2023-04-26T05:51:50;93000.69;;;10.76;72.47
49393;BME280;35268;42.642;23.308;2023-04-26T05:54:15;93005.03;;;10.81;72.34
49393;BME280;35268;42.642;23.308;2023-04-26T05:56:41;93001.91;;;10.91;71.91
49393;BME280;35268;42.642;23.308;2023-04-26T05:59:07;93003.22;;;10.97;71.38
49393;BME280;35268;42.642;23.308;2023-04-26T06:01:32;93000.53;;;11.10;70.09
49393;BME280;35268;42.642;23.308;2023-04-26T06:03:58;93006.06;;;11.17;69.68
49393;BME280;35268;42.642;23.308;2023-04-26T06:06:23;93007.63;;;11.18;69.71
49393;BME280;35268;42.642;23.308;2023-04-26T06:08:49;93000.25;;;11.27;70.21
49393;BME280;35268;42.642;23.308;2023-04-26T06:11:15;93004.72;;;11.23;70.37
49393;BME280;35268;42.642;23.308;2023-04-26T06:13:40;93007.34;;;11.35;69.75
49393;BME280;35268;42.642;23.308;2023-04-26T06:16:06;93007.31;;;11.48;67.66
49393;BME280;35268;42.642;23.308;2023-04-26T06:18:31;93000.88;;;11.49;67.25
49393;BME280;35268;42.642;23.308;2023-04-26T06:20:57;93015.03;;;11.37;64.38
49393;BME280;35268;42.642;23.308;2023-04-26T06:23:22;93007.59;;;11.30;64.31
49393;BME280;35268;42.642;23.308;2023-04-26T06:25:48;93014.09;;;11.04;64.12
49393;BME280;35268;42.642;23.308;2023-04-26T06:28:13;93021.22;;;11.00;65.70
49393;BME280;35268;42.642;23.308;2023-04-26T06:30:39;93020.03;;;10.73;64.75
49393;BME280;35268;42.642;23.308;2023-04-26T06:33:05;93010.69;;;10.55;64.12
49393;BME280;35268;42.642;23.308;2023-04-26T06:35:31;93019.91;;;10.45;64.01
49393;BME280;35268;42.642;23.308;2023-04-26T06:37:56;93024.78;;;10.31;64.52
49393;BME280;35268;42.642;23.308;2023-04-26T06:40:22;93020.41;;;10.26;68.07
49393;BME280;35268;42.642;23.308;2023-04-26T06:42:47;93024.50;;;10.23;66.01
49393;BME280;35268;42.642;23.308;2023-04-26T06:45:16;93021.06;;;10.23;65.86
49393;BME280;35268;42.642;23.308;2023-04-26T06:47:41;93026.19;;;10.28;67.55
49393;BME280;35268;42.642;23.308;2023-04-26T06:50:07;93031.50;;;10.16;64.88
49393;BME280;35268;42.642;23.308;2023-04-26T06:52:33;93028.44;;;10.05;65.10
49393;BME280;35268;42.642;23.308;2023-04-26T06:55:02;93034.47;;;9.81;63.22
49393;BME280;35268;42.642;23.308;2023-04-26T06:57:28;93035.69;;;9.71;63.51
49393;BME280;35268;42.642;23.308;2023-04-26T06:59:53;93037.72;;;9.53;64.20
49393;BME280;35268;42.642;23.308;2023-04-26T07:02:18;93045.84;;;9.57;65.00
49393;BME280;35268;42.642;23.308;2023-04-26T07:04:44;93036.50;;;9.51;64.55
49393;BME280;35268;42.642;23.308;2023-04-26T07:07:10;93037.41;;;9.55;65.93
49393;BME280;35268;42.642;23.308;2023-04-26T07:09:36;93028.78;;;9.70;67.13
49393;BME280;35268;42.642;23.308;2023-04-26T07:12:01;93037.56;;;9.71;64.98
49393;BME280;35268;42.642;23.308;2023-04-26T07:14:27;93027.81;;;9.75;62.01
49393;BME280;35268;42.642;23.308;2023-04-26T07:16:52;93023.09;;;9.93;62.90
49393;BME280;35268;42.642;23.308;2023-04-26T07:19:18;93034.44;;;10.02;61.73
49393;BME280;35268;42.642;23.308;2023-04-26T07:21:44;93024.91;;;10.13;62.15
49393;BME280;35268;42.642;23.308;2023-04-26T07:24:09;93023.19;;;10.30;60.15
49393;BME280;35268;42.642;23.308;2023-04-26T07:26:35;93020.97;;;10.32;59.13
49393;BME280;35268;42.642;23.308;2023-04-26T07:29:01;93015.13;;;10.38;57.42
49393;BME280;35268;42.642;23.308;2023-04-26T07:31:26;93022.13;;;10.43;56.89
49393;BME280;35268;42.642;23.308;2023-04-26T07:33:52;93021.22;;;10.39;54.05
49393;BME280;35268;42.642;23.308;2023-04-26T07:36:17;93024.97;;;10.38;54.36
49393;BME280;35268;42.642;23.308;2023-04-26T07:38:43;93035.13;;;10.44;56.36
49393;BME280;35268;42.642;23.308;2023-04-26T07:41:08;93044.06;;;10.40;57.03
49393;BME280;35268;42.642;23.308;2023-04-26T07:43:34;93049.34;;;10.28;56.18
49393;BME280;35268;42.642;23.308;2023-04-26T07:46:00;93043.03;;;10.20;56.91
49393;BME280;35268;42.642;23.308;2023-04-26T07:48:27;93042.91;;;10.16;56.79
49393;BME280;35268;42.642;23.308;2023-04-26T07:50:52;93074.94;;;9.95;57.36
49393;BME280;35268;42.642;23.308;2023-04-26T07:53:20;93052.72;;;9.91;57.83
49393;BME280;35268;42.642;23.308;2023-04-26T07:55:45;93058.38;;;9.90;58.42
49393;BME280;35268;42.642;23.308;2023-04-26T07:58:10;93052.72;;;9.91;58.19
49393;BME280;35268;42.642;23.308;2023-04-26T08:00:39;93051.97;;;10.03;61.84
49393;BME280;35268;42.642;23.308;2023-04-26T08:03:05;93050.00;;;10.12;58.38
49393;BME280;35268;42.642;23.308;2023-04-26T08:05:31;93063.50;;;10.07;58.55
49393;BME280;35268;42.642;23.308;2023-04-26T08:07:56;93043.47;;;10.10;58.19
49393;BME280;35268;42.642;23.308;2023-04-26T08:10:22;93052.81;;;10.28;57.92
49393;BME280;35268;42.642;23.308;2023-04-26T08:12:47;93048.50;;;10.36;58.40
49393;BME280;35268;42.642;23.308;2023-04-26T08:15:13;93058.06;;;10.37;57.75
49393;BME280;35268;42.642;23.308;2023-04-26T08:17:38;93063.53;;;10.40;57.47
49393;BME280;35268;42.642;23.308;2023-04-26T08:20:04;93057.78;;;10.17;57.46
49393;BME280;35268;42.642;23.308;2023-04-26T08:22:30;93073.16;;;9.99;57.81
49393;BME280;35268;42.642;23.308;2023-04-26T08:24:55;93054.88;;;10.10;58.56
49393;BME280;35268;42.642;23.308;2023-04-26T08:27:21;93064.44;;;10.23;58.50
49393;BME280;35268;42.642;23.308;2023-04-26T08:29:47;93071.19;;;10.09;57.53
49393;BME280;35268;42.642;23.308;2023-04-26T08:32:13;93046.47;;;10.20;58.46
49393;BME280;35268;42.642;23.308;2023-04-26T08:34:38;93065.31;;;10.15;55.73
49393;BME280;35268;42.642;23.308;2023-04-26T08:37:06;93063.09;;;10.17;55.63
49393;BME280;35268;42.642;23.308;2023-04-26T08:39:35;93059.34;;;10.18;56.13
49393;BME280;35268;42.642;23.308;2023-04-26T08:42:12;93057.94;;;10.33;56.42
49393;BME280;35268;42.642;23.308;2023-04-26T08:44:40;93047.19;;;10.42;56.75
49393;BME280;35268;42.642;23.308;2023-04-26T08:47:13;93060.94;;;10.44;57.07
49393;BME280;35268;42.642;23.308;2023-04-26T08:49:41;93064.44;;;10.57;56.28
49393;BME280;35268;42.642;23.308;2023-04-26T08:52:10;93070.41;;;10.54;56.79
49393;BME280;35268;42.642;23.308;2023-04-26T08:54:37;93063.66;;;10.56;55.58
49393;BME280;35268;42.642;23.308;2023-04-26T08:57:03;93056.88;;;10.59;54.96
49393;BME280;35268;42.642;23.308;2023-04-26T08:59:29;93065.44;;;10.64;56.36
49393;BME280;35268;42.642;23.308;2023-04-26T09:01:56;93067.22;;;10.85;57.24
49393;BME280;35268;42.642;23.308;2023-04-26T09:04:22;93062.09;;;10.80;55.43
49393;BME280;35268;42.642;23.308;2023-04-26T09:06:49;93068.66;;;10.95;53.92
49393;BME280;35268;42.642;23.308;2023-04-26T09:09:18;93065.66;;;10.96;54.33
49393;BME280;35268;42.642;23.308;2023-04-26T09:11:59;93075.97;;;11.10;53.29
49393;BME280;35268;42.642;23.308;2023-04-26T09:14:26;93074.41;;;11.09;54.73
49393;BME280;35268;42.642;23.308;2023-04-26T09:16:52;93070.97;;;11.21;54.20
49393;BME280;35268;42.642;23.308;2023-04-26T09:19:30;93073.31;;;11.22;55.45
49393;BME280;35268;42.642;23.308;2023-04-26T09:21:58;93068.28;;;11.33;53.86
49393;BME280;35268;42.642;23.308;2023-04-26T09:24:23;93071.50;;;11.39;53.77
49393;BME280;35268;42.642;23.308;2023-04-26T09:27:05;93071.31;;;11.60;54.87
49393;BME280;35268;42.642;23.308;2023-04-26T09:29:31;93066.16;;;11.79;53.64
49393;BME280;35268;42.642;23.308;2023-04-26T09:31:56;93067.69;;;11.80;51.83
49393;BME280;35268;42.642;23.308;2023-04-26T09:34:22;93058.81;;;11.76;51.74
49393;BME280;35268;42.642;23.308;2023-04-26T09:36:55;93077.75;;;11.71;52.23
49393;BME280;35268;42.642;23.308;2023-04-26T09:39:38;93074.44;;;11.62;52.16
49393;BME280;35268;42.642;23.308;2023-04-26T09:42:08;93065.75;;;11.65;51.07
49393;BME280;35268;42.642;23.308;2023-04-26T09:44:34;93065.94;;;11.72;51.95
49393;BME280;35268;42.642;23.308;2023-04-26T09:47:05;93050.69;;;11.85;51.44
49393;BME280;35268;42.642;23.308;2023-04-26T09:49:51;93055.72;;;12.02;50.79
49393;BME280;35268;42.642;23.308;2023-04-26T09:52:17;93063.00;;;12.18;51.52
49393;BME280;35268;42.642;23.308;2023-04-26T09:54:45;93055.81;;;12.34;50.59
49393;BME280;35268;42.642;23.308;2023-04-26T09:57:12;93060.63;;;12.44;49.03
49393;BME280;35268;42.642;23.308;2023-04-26T09:59:45;93058.38;;;12.31;49.03
49393;BME280;35268;42.642;23.308;2023-04-26T10:02:22;93053.97;;;12.22;48.46
49393;BME280;35268;42.642;23.308;2023-04-26T10:04:52;93056.47;;;12.31;50.29
49393;BME280;35268;42.642;23.308;2023-04-26T10:07:20;93047.97;;;12.26;49.68
49393;BME280;35268;42.642;23.308;2023-04-26T10:09:47;93053.28;;;12.41;48.04
49393;BME280;35268;42.642;23.308;2023-04-26T10:12:15;93052.28;;;12.46;48.97
49393;BME280;35268;42.642;23.308;2023-04-26T10:14:42;93050.91;;;12.52;48.27
49393;BME280;35268;42.642;23.308;2023-04-26T10:17:11;93058.66;;;12.57;48.78
49393;BME280;35268;42.642;23.308;2023-04-26T10:19:40;93056.25;;;12.52;47.54
49393;BME280;35268;42.642;23.308;2023-04-26T10:22:27;93044.53;;;12.57;47.63
49393;BME280;35268;42.642;23.308;2023-04-26T10:24:53;93045.91;;;12.67;47.44
49393;BME280;35268;42.642;23.308;2023-04-26T10:30:19;93053.94;;;12.67;47.10
49393;BME280;35268;42.642;23.308;2023-04-26T10:35:16;93048.66;;;12.54;46.30
49393;BME280;35268;42.642;23.308;2023-04-26T10:40:34;93048.47;;;12.47;46.57
49393;BME280;35268;42.642;23.308;2023-04-26T10:45:45;93051.41;;;12.42;46.22
49393;BME280;35268;42.642;23.308;2023-04-26T10:48:28;93033.38;;;12.23;45.94
49393;BME280;35268;42.642;23.308;2023-04-26T10:53:29;93055.16;;;12.09;47.13
49393;BME280;35268;42.642;23.308;2023-04-26T10:55:55;93034.91;;;12.08;46.22
49393;BME280;35268;42.642;23.308;2023-04-26T10:58:33;93034.50;;;12.22;48.41
49393;BME280;35268;42.642;23.308;2023-04-26T11:03:36;93038.13;;;12.45;45.06
49393;BME280;35268;42.642;23.308;2023-04-26T11:06:10;93030.09;;;12.45;44.65
49393;BME280;35268;42.642;23.308;2023-04-26T11:08:39;93042.53;;;12.38;43.82
49393;BME280;35268;42.642;23.308;2023-04-26T11:11:08;93031.34;;;12.48;45.23
49393;BME280;35268;42.642;23.308;2023-04-26T11:13:41;93044.09;;;12.55;45.33
49393;BME280;35268;42.642;23.308;2023-04-26T11:16:11;93043.47;;;12.61;44.15
49393;BME280;35268;42.642;23.308;2023-04-26T11:18:42;93037.03;;;12.62;42.31
49393;BME280;35268;42.642;23.308;2023-04-26T11:21:09;93065.66;;;12.62;43.04
49393;BME280;35268;42.642;23.308;2023-04-26T11:23:35;93047.97;;;12.57;43.16
49393;BME280;35268;42.642;23.308;2023-04-26T11:26:05;93052.00;;;12.51;43.46
49393;BME280;35268;42.642;23.308;2023-04-26T11:28:33;93050.63;;;12.57;44.23
49393;BME280;35268;42.642;23.308;2023-04-26T11:30:59;93042.97;;;12.72;44.97
49393;BME280;35268;42.642;23.308;2023-04-26T11:33:26;93046.50;;;12.76;42.99
49393;BME280;35268;42.642;23.308;2023-04-26T11:35:53;93042.38;;;12.78;43.69
49393;BME280;35268;42.642;23.308;2023-04-26T11:38:23;93050.53;;;12.70;43.47
49393;BME280;35268;42.642;23.308;2023-04-26T11:41:00;93056.84;;;12.77;42.38
49393;BME280;35268;42.642;23.308;2023-04-26T11:43:35;93043.47;;;12.61;42.40
49393;BME280;35268;42.642;23.308;2023-04-26T11:46:02;93056.06;;;12.61;43.50
49393;BME280;35268;42.642;23.308;2023-04-26T11:48:29;93059.50;;;12.61;42.43
49393;BME280;35268;42.642;23.308;2023-04-26T11:50:59;93055.75;;;12.62;43.72
49393;BME280;35268;42.642;23.308;2023-04-26T11:53:34;93052.63;;;12.60;42.98
49393;BME280;35268;42.642;23.308;2023-04-26T11:55:59;93055.91;;;12.70;43.18
49393;BME280;35268;42.642;23.308;2023-04-26T11:58:25;93034.31;;;12.94;43.53
49393;BME280;35268;42.642;23.308;2023-04-26T12:01:00;93033.94;;;13.12;43.20
49393;BME280;35268;42.642;23.308;2023-04-26T12:03:35;93046.44;;;13.39;41.24
49393;BME280;35268;42.642;23.308;2023-04-26T12:06:02;93046.16;;;13.29;41.64
49393;BME280;35268;42.642;23.308;2023-04-26T12:08:28;93039.00;;;13.33;41.73
49393;BME280;35268;42.642;23.308;2023-04-26T12:11:01;93034.59;;;13.40;42.73
49393;BME280;35268;42.642;23.308;2023-04-26T12:13:28;93029.22;;;13.40;43.09
49393;BME280;35268;42.642;23.308;2023-04-26T12:15:54;93033.91;;;13.43;42.95
49393;BME280;35268;42.642;23.308;2023-04-26T12:18:19;93019.16;;;13.34;41.75
49393;BME280;35268;42.642;23.308;2023-04-26T12:20:45;93033.16;;;13.27;42.82
49393;BME280;35268;42.642;23.308;2023-04-26T12:23:15;93034.59;;;13.24;42.83
49393;BME280;35268;42.642;23.308;2023-04-26T12:25:54;93040.16;;;13.00;41.36
49393;BME280;35268;42.642;23.308;2023-04-26T12:28:21;93036.31;;;12.97;41.57
49393;BME280;35268;42.642;23.308;2023-04-26T12:30:47;93049.22;;;13.11;40.64
49393;BME280;35268;42.642;23.308;2023-04-26T12:33:13;93031.50;;;13.22;40.63
49393;BME280;35268;42.642;23.308;2023-04-26T12:35:39;93032.00;;;13.28;41.06
49393;BME280;35268;42.642;23.308;2023-04-26T12:38:04;93024.31;;;13.27;40.65
49393;BME280;35268;42.642;23.308;2023-04-26T12:40:30;93030.47;;;13.27;41.12
49393;BME280;35268;42.642;23.308;2023-04-26T12:42:56;93015.09;;;13.24;42.03
49393;BME280;35268;42.642;23.308;2023-04-26T12:45:23;93006.50;;;13.15;42.34
49393;BME280;35268;42.642;23.308;2023-04-26T12:47:49;93034.91;;;13.03;42.55
49393;BME280;35268;42.642;23.308;2023-04-26T12:50:15;93022.81;;;13.10;42.94
49393;BME280;35268;42.642;23.308;2023-04-26T12:52:42;93028.47;;;12.89;42.43
49393;BME280;35268;42.642;23.308;2023-04-26T12:55:09;93019.22;;;12.86;42.80
49393;BME280;35268;42.642;23.308;2023-04-26T12:57:36;93044.56;;;12.92;42.12
49393;BME280;35268;42.642;23.308;2023-04-26T13:00:03;93027.09;;;12.79;42.53
49393;BME280;35268;42.642;23.308;2023-04-26T13:02:29;93035.38;;;12.74;42.73
49393;BME280;35268;42.642;23.308;2023-04-26T13:04:54;93036.16;;;12.58;43.79
49393;BME280;35268;42.642;23.308;2023-04-26T13:07:21;93019.50;;;12.65;44.35
49393;BME280;35268;42.642;23.308;2023-04-26T13:09:46;93032.78;;;12.61;45.02